Time;durP1;ratioP1;P1;durP2;ratioP2;P2;SDS_P1;SDS_P2;PMS_P1;PMS_P2;Temp;Humidity;BMP_temperature;BMP_pressure;BME280_temperature;BME280_humidity;BME280_pressure;Samples;Min_cycle;Max_cycle;Signal;HPM_P1;HPM_P2
2023/10/30 00:01:13;;;;;;;1.50;0.63;;;;;;;15.33;84.30;99089.97;10358006;27;96624;-86
2023/10/30 00:06:18;;;;;;;1.85;0.60;;;;;;;15.34;83.82;99093.44;10362769;28;96873;-86
2023/10/30 00:11:21;;;;;;;4.30;0.68;;;;;;;15.17;84.54;99083.25;10356336;28;96774;-85
2023/10/30 00:16:26;;;;;;;1.93;0.60;;;;;;;15.05;84.80;99079.75;10357632;28;97335;-85
2023/10/30 00:21:32;;;;;;;1.65;0.50;;;;;;;14.98;85.37;99073.22;10376805;28;96997;-84
2023/10/30 00:26:36;;;;;;;1.55;0.50;;;;;;;15.02;84.62;99074.69;10379571;28;96545;-85
2023/10/30 00:31:40;;;;;;;1.50;0.60;;;;;;;15.03;84.85;99072.88;10417400;28;96757;-85
2023/10/30 00:36:45;;;;;;;0.90;0.50;;;;;;;15.03;84.55;99080.81;10420999;28;96665;-85
2023/10/30 00:41:48;;;;;;;2.20;0.70;;;;;;;14.99;84.25;99088.16;10421735;28;96738;-85
2023/10/30 00:46:53;;;;;;;2.40;0.60;;;;;;;14.89;84.36;99083.69;10409316;28;96839;-83
2023/10/30 00:51:58;;;;;;;2.30;0.60;;;;;;;14.89;85.26;99083.69;10342980;28;96727;-84
2023/10/30 00:57:01;;;;;;;0.75;0.40;;;;;;;14.93;84.93;99075.38;10336865;28;97041;-85
2023/10/30 01:02:04;;;;;;;2.78;0.50;;;;;;;14.89;85.63;99112.84;10345846;28;96695;-81
2023/10/30 01:07:09;;;;;;;2.70;0.63;;;;;;;14.66;86.54;99141.84;10378732;28;96754;-80
2023/10/30 01:12:12;;;;;;;2.33;0.75;;;;;;;14.55;85.29;99131.22;10378381;28;96669;-83
2023/10/30 01:17:16;;;;;;;2.75;0.60;;;;;;;14.36;84.64;99141.47;10378740;28;96845;-83
2023/10/30 01:22:21;;;;;;;2.25;0.47;;;;;;;14.34;84.90;99147.81;10378612;28;96712;-83
2023/10/30 01:27:24;;;;;;;0.80;0.57;;;;;;;14.33;84.70;99141.66;10377668;28;97099;-84
2023/10/30 01:32:27;;;;;;;0.20;0.20;;;;;;;14.26;84.13;99152.81;10377777;28;96655;-84
2023/10/30 01:37:32;;;;;;;2.17;0.30;;;;;;;14.16;83.63;99155.25;10377415;28;96632;-84
2023/10/30 01:42:36;;;;;;;1.33;0.32;;;;;;;14.13;83.44;99168.72;10377658;28;96860;-84
2023/10/30 01:47:39;;;;;;;1.85;0.45;;;;;;;14.14;83.43;99170.41;10342656;28;96911;-84
2023/10/30 01:52:45;;;;;;;2.40;0.43;;;;;;;14.14;82.77;99161.63;10341916;28;96755;-84
2023/10/30 01:57:49;;;;;;;2.53;0.50;;;;;;;14.15;82.77;99161.53;10376910;28;96634;-83
2023/10/30 02:02:53;;;;;;;0.93;0.30;;;;;;;14.17;82.84;99177.28;10376722;28;96700;-84
2023/10/30 02:07:58;;;;;;;0.98;0.38;;;;;;;14.06;82.81;99172.75;10376515;28;96854;-83
2023/10/30 02:13:04;;;;;;;0.57;0.30;;;;;;;14.09;83.15;99177.81;10376229;28;96692;-84
2023/10/30 02:18:08;;;;;;;3.42;0.30;;;;;;;14.17;83.22;99177.28;10376419;28;97072;-85
2023/10/30 02:23:12;;;;;;;2.25;0.80;;;;;;;14.18;83.05;99169.22;10376918;28;97133;-85
2023/10/30 02:28:17;;;;;;;2.13;0.45;;;;;;;14.06;83.52;99172.75;10376013;28;96619;-86
2023/10/30 02:33:21;;;;;;;1.27;0.60;;;;;;;14.00;83.41;99174.97;10375741;28;96688;-86
2023/10/30 02:38:24;;;;;;;2.72;0.50;;;;;;;14.08;83.37;99178.78;10374640;28;96832;-86
2023/10/30 02:43:29;;;;;;;4.13;0.52;;;;;;;14.03;83.18;99180.06;10377148;28;96706;-86
2023/10/30 02:48:32;;;;;;;1.55;0.40;;;;;;;13.90;83.53;99177.38;10392139;28;96677;-86
2023/10/30 02:53:36;;;;;;;1.08;0.30;;;;;;;13.93;83.53;99186.94;10375379;28;96577;-86
2023/10/30 02:58:41;;;;;;;3.72;0.30;;;;;;;13.86;83.39;99183.00;10375310;28;96745;-86
2023/10/30 03:03:44;;;;;;;1.90;0.47;;;;;;;13.85;83.71;99186.63;10375388;28;96628;-85
2023/10/30 03:08:48;;;;;;;1.15;0.47;;;;;;;13.65;84.45;99177.41;10374728;28;96611;-86
2023/10/30 03:13:52;;;;;;;1.67;0.40;;;;;;;13.62;83.92;99178.47;10375400;28;96986;-85
2023/10/30 03:18:56;;;;;;;0.52;0.30;;;;;;;13.68;84.01;99188.63;10374153;28;97183;-86
2023/10/30 03:24:00;;;;;;;0.85;0.35;;;;;;;13.74;83.65;99194.44;10374437;28;96636;-85
2023/10/30 03:29:05;;;;;;;1.42;0.55;;;;;;;13.68;83.55;99201.84;10373315;28;96769;-86
2023/10/30 03:34:08;;;;;;;0.60;0.40;;;;;;;13.74;83.86;99202.38;10374394;28;96754;-86
2023/10/30 03:39:12;;;;;;;2.25;0.60;;;;;;;13.68;84.09;99195.72;10332636;28;96645;-85
2023/10/30 03:44:19;;;;;;;0.45;0.20;;;;;;;13.64;83.89;99200.34;10379508;22;96768;-84
2023/10/30 03:49:22;;;;;;;0.68;0.30;;;;;;;13.62;83.92;99204.91;10313965;28;96905;-85
2023/10/30 03:54:26;;;;;;;3.25;0.52;;;;;;;13.60;83.85;99212.13;10309013;28;96568;-85
2023/10/30 03:59:30;;;;;;;0.95;0.43;;;;;;;13.61;83.54;99208.50;10298646;28;96906;-86
2023/10/30 04:04:33;;;;;;;0.85;0.38;;;;;;;13.60;83.66;99209.47;10317236;28;96818;-85
2023/10/30 04:09:37;;;;;;;0.88;0.40;;;;;;;13.41;83.85;99208.16;10326167;28;96700;-85
2023/10/30 04:14:42;;;;;;;4.30;1.00;;;;;;;13.39;83.95;99218.84;10297855;28;97043;-85
2023/10/30 04:19:45;;;;;;;0.77;0.50;;;;;;;13.31;83.93;99215.84;10296784;28;96653;-85
2023/10/30 04:24:49;;;;;;;1.73;0.32;;;;;;;13.33;83.92;99213.09;10298071;28;96926;-86
2023/10/30 04:29:54;;;;;;;1.30;0.38;;;;;;;13.50;83.67;99215.47;10298010;28;96714;-85
2023/10/30 04:34:57;;;;;;;0.40;0.40;;;;;;;13.47;83.83;99221.81;10297389;28;96733;-85
2023/10/30 04:40:00;;;;;;;0.55;0.50;;;;;;;13.42;83.81;99226.56;10306668;28;96590;-86
2023/10/30 04:45:06;;;;;;;0.73;0.50;;;;;;;13.35;84.27;99235.00;10312516;28;96831;-86
2023/10/30 04:50:10;;;;;;;0.32;0.30;;;;;;;13.42;84.19;99241.56;10296818;28;96602;-86
2023/10/30 04:55:13;;;;;;;0.40;0.40;;;;;;;13.45;84.39;99250.13;10297232;28;96620;-85
2023/10/30 05:00:19;;;;;;;1.00;0.47;;;;;;;13.37;84.46;99260.38;10297230;28;96598;-86
2023/10/30 05:05:22;;;;;;;1.65;0.50;;;;;;;13.51;84.31;99243.59;10295494;28;96860;-85
2023/10/30 05:10:25;;;;;;;1.35;0.60;;;;;;;13.58;84.27;99248.38;10295356;28;96977;-85
2023/10/30 05:15:30;;;;;;;1.05;0.45;;;;;;;13.49;83.97;99256.06;10295352;28;96918;-85
2023/10/30 05:20:33;;;;;;;2.25;0.60;;;;;;;13.30;84.13;99256.44;10296405;28;96772;-86
2023/10/30 05:25:36;;;;;;;1.52;0.45;;;;;;;13.30;84.62;99252.94;10296026;28;96871;-86
2023/10/30 05:30:48;;;;;;;0.90;0.50;;;;;;;13.17;84.17;99267.94;10294902;28;96874;-85
2023/10/30 05:35:52;;;;;;;1.13;0.47;;;;;;;12.97;84.50;99276.28;10295914;28;97874;-85
2023/10/30 05:40:55;;;;;;;0.70;0.40;;;;;;;13.08;84.09;99272.03;10326289;28;96864;-85
2023/10/30 05:46:00;;;;;;;0.73;0.60;;;;;;;13.09;84.17;99276.34;10295749;28;97040;-86
2023/10/30 05:51:03;;;;;;;1.48;0.43;;;;;;;13.02;84.12;99282.97;10295101;28;96609;-85
2023/10/30 05:56:07;;;;;;;0.85;0.60;;;;;;;13.08;84.37;99282.59;10294652;28;96573;-86
2023/10/30 06:01:11;;;;;;;2.20;0.75;;;;;;;13.06;84.22;99281.84;10293496;28;96752;-85
2023/10/30 06:06:15;;;;;;;3.30;0.75;;;;;;;13.13;84.35;99283.13;10294429;28;96674;-86
2023/10/30 06:11:18;;;;;;;1.42;0.40;;;;;;;13.15;84.14;99297.09;10294322;28;96777;-86
2023/10/30 06:16:23;;;;;;;2.22;0.50;;;;;;;13.26;83.75;99301.69;10293894;28;96841;-85
2023/10/30 06:21:26;;;;;;;1.13;0.45;;;;;;;13.14;83.89;99308.59;10293755;28;97967;-85
2023/10/30 06:26:30;;;;;;;2.28;0.65;;;;;;;13.08;83.68;99300.22;10312983;28;96554;-85
2023/10/30 06:31:35;;;;;;;1.05;0.50;;;;;;;13.09;83.71;99302.75;10334135;28;96951;-86
2023/10/30 06:36:39;;;;;;;1.80;0.40;;;;;;;12.99;83.72;99309.59;10348813;28;96741;-85
2023/10/30 06:41:45;;;;;;;2.42;0.93;;;;;;;13.00;83.76;99310.44;10345746;28;96845;-86
2023/10/30 06:46:51;;;;;;;1.08;0.38;;;;;;;12.90;83.81;99312.81;10292736;28;96644;-85
2023/10/30 06:51:56;;;;;;;1.27;0.55;;;;;;;12.89;83.83;99321.69;10323177;28;96899;-86
2023/10/30 06:57:00;;;;;;;1.80;0.57;;;;;;;12.84;83.74;99326.41;10333905;28;96589;-86
2023/10/30 07:02:05;;;;;;;0.63;0.40;;;;;;;12.90;84.16;99320.72;10303700;28;96765;-86
2023/10/30 07:07:13;;;;;;;1.38;0.50;;;;;;;12.93;84.40;99335.56;10317483;28;96924;-86
2023/10/30 07:12:19;;;;;;;0.75;0.45;;;;;;;12.78;84.97;99360.25;10309617;28;96878;-85
2023/10/30 07:17:24;;;;;;;0.95;0.55;;;;;;;12.89;85.53;99350.75;10298991;28;96796;-86
2023/10/30 07:22:28;;;;;;;;;;;;;;;12.89;85.54;99369.22;10305028;28;96956;-86
2023/10/30 07:27:32;;;;;;;1.45;0.50;;;;;;;12.98;84.97;99386.28;10321394;28;97944;-84
2023/10/30 07:32:36;;;;;;;2.28;0.45;;;;;;;12.95;85.38;99386.44;10311633;28;98155;-85
2023/10/30 07:37:40;;;;;;;0.63;0.20;;;;;;;12.97;85.26;99413.59;10297931;28;98831;-81
2023/10/30 07:42:43;;;;;;;2.05;0.60;;;;;;;13.16;85.25;99430.00;10328183;28;97285;-84
2023/10/30 07:47:48;;;;;;;2.53;0.50;;;;;;;13.24;85.21;99430.38;10308736;28;97949;-83
2023/10/30 07:52:52;;;;;;;1.85;0.65;;;;;;;13.25;85.49;99427.63;10307029;28;96979;-86
2023/10/30 07:57:55;;;;;;;1.17;0.70;;;;;;;13.31;85.27;99432.50;10316324;28;96804;-86
2023/10/30 08:03:00;;;;;;;0.50;0.40;;;;;;;13.23;85.78;99439.22;10299158;28;96772;-86
2023/10/30 08:08:04;;;;;;;0.82;0.50;;;;;;;13.53;84.62;99453.16;10324194;28;96842;-87
2023/10/30 08:13:07;;;;;;;3.72;0.40;;;;;;;13.68;84.16;99468.88;10316157;28;98583;-88
2023/10/30 08:18:12;;;;;;;0.98;0.50;;;;;;;13.92;83.80;99463.78;10307844;28;97192;-87
2023/10/30 08:23:16;;;;;;;0.77;0.50;;;;;;;13.90;83.37;99475.41;10307638;28;96840;-88
2023/10/30 08:28:19;;;;;;;1.13;0.52;;;;;;;13.96;84.19;99472.34;10304178;28;96697;-87
2023/10/30 08:33:24;;;;;;;2.10;0.55;;;;;;;14.25;83.54;99482.75;10315692;28;97968;-87
2023/10/30 08:38:27;;;;;;;1.60;0.60;;;;;;;14.46;83.18;99486.59;10296177;28;96874;-88
2023/10/30 08:43:30;;;;;;;1.83;0.45;;;;;;;14.90;83.17;99490.66;10309054;28;97410;-84
2023/10/30 08:48:35;;;;;;;1.38;0.50;;;;;;;14.77;83.52;99511.84;10315058;28;98515;-88
2023/10/30 08:53:39;;;;;;;3.35;0.70;;;;;;;14.79;83.59;99518.72;10322650;28;97213;-89
2023/10/30 08:58:43;;;;;;;1.80;0.40;;;;;;;14.64;83.76;99522.41;10321117;28;97013;-87
2023/10/30 09:03:47;;;;;;;1.00;0.55;;;;;;;14.69;83.77;99544.16;10315328;28;97573;-88
2023/10/30 09:08:52;;;;;;;2.15;0.47;;;;;;;14.71;83.78;99558.13;10310821;28;98861;-88
2023/10/30 09:13:56;;;;;;;0.90;0.40;;;;;;;14.75;83.59;99550.81;10331877;28;96839;-84
2023/10/30 09:19:00;;;;;;;2.40;0.50;;;;;;;14.62;84.14;99561.41;10322707;28;98463;-84
2023/10/30 09:24:04;;;;;;;2.17;0.40;;;;;;;14.72;83.55;99543.09;10304450;28;100339;-83
2023/10/30 09:29:07;;;;;;;1.00;0.40;;;;;;;14.63;83.05;99560.44;10328622;28;96975;-83
2023/10/30 09:34:13;;;;;;;3.45;0.60;;;;;;;14.59;83.46;99558.94;10341144;28;96689;-84
2023/10/30 09:39:16;;;;;;;2.28;0.40;;;;;;;14.74;83.73;99555.28;10327105;28;96805;-83
2023/10/30 09:44:21;;;;;;;1.65;0.73;;;;;;;14.77;84.63;99544.47;10308619;28;97766;-83
2023/10/30 09:49:28;;;;;;;1.90;0.50;;;;;;;14.83;84.18;99548.50;10323203;28;97934;-84
2023/10/30 09:54:33;;;;;;;1.85;0.73;;;;;;;15.02;83.14;99554.25;10328716;28;98866;-84
2023/10/30 09:59:37;;;;;;;1.70;0.40;;;;;;;15.09;82.89;99560.81;10328673;28;97058;-83
2023/10/30 10:04:42;;;;;;;1.48;0.47;;;;;;;15.02;84.32;99569.28;10299979;28;97581;-83
2023/10/30 10:09:57;;;;;;;3.83;0.57;;;;;;;14.78;84.46;99572.63;10313966;28;96835;-82
2023/10/30 10:15:03;;;;;;;1.60;0.75;;;;;;;14.88;84.06;99559.63;10339222;28;96827;-81
2023/10/30 10:20:10;;;;;;;3.15;0.50;;;;;;;14.91;84.36;99587.72;10334752;28;96738;-82
2023/10/30 10:25:18;;;;;;;1.17;0.30;;;;;;;14.90;83.69;99594.81;10321117;28;97128;-83
2023/10/30 10:30:25;;;;;;;0.82;0.50;;;;;;;15.15;81.17;99588.69;10335030;28;97289;-82
2023/10/30 10:35:31;;;;;;;2.25;0.40;;;;;;;15.81;81.48;99592.81;10330609;28;96862;-82
2023/10/30 10:40:35;;;;;;;1.25;0.30;;;;;;;16.46;80.56;99601.31;10321937;28;96744;-82
2023/10/30 10:45:40;;;;;;;2.72;0.40;;;;;;;17.02;78.00;99599.72;10350805;28;96863;-82
2023/10/30 10:50:47;;;;;;;2.38;0.50;;;;;;;17.14;79.63;99608.59;10312996;28;98501;-83
2023/10/30 10:55:51;;;;;;;1.75;0.43;;;;;;;16.93;79.02;99627.84;10307744;28;98579;-83
2023/10/30 11:00:55;;;;;;;2.40;0.60;;;;;;;16.47;80.25;99637.56;10300407;28;98782;-81
2023/10/30 11:06:00;;;;;;;4.43;0.60;;;;;;;16.19;80.39;99644.94;10302238;28;97891;-83
2023/10/30 11:11:11;;;;;;;1.77;0.50;;;;;;;18.47;77.62;99646.75;10292786;28;98221;-80
2023/10/30 11:16:21;;;;;;;3.05;0.60;;;;;;;18.12;77.07;99636.25;10308270;28;96881;-83
2023/10/30 11:21:27;;;;;;;3.05;0.50;;;;;;;17.55;77.95;99638.19;10315919;28;98487;-84
2023/10/30 11:26:44;;;;;;;0.50;0.20;;;;;;;16.91;79.08;99651.03;10305711;28;98693;-85
2023/10/30 11:31:55;;;;;;;1.33;0.40;;;;;;;16.35;79.48;99657.00;10300086;28;98574;-85
2023/10/30 11:37:08;;;;;;;1.83;0.52;;;;;;;15.97;80.23;99696.06;10319387;28;96925;-87
2023/10/30 11:42:29;;;;;;;2.83;0.53;;;;;;;15.61;81.10;99693.31;10310234;28;98741;-86
2023/10/30 11:47:34;;;;;;;2.25;0.60;;;;;;;15.71;80.79;99699.69;10309382;28;99200;-88
2023/10/30 11:52:39;;;;;;;1.58;0.52;;;;;;;15.63;81.33;99692.25;10303733;28;97212;-86
2023/10/30 11:57:44;;;;;;;1.98;0.57;;;;;;;15.89;80.96;99701.06;10307713;28;98606;-85
2023/10/30 12:02:47;;;;;;;2.17;0.47;;;;;;;16.62;79.38;99688.69;10301463;28;96932;-82
2023/10/30 12:07:52;;;;;;;2.28;0.52;;;;;;;19.03;74.31;99667.75;10301178;28;100189;-80
2023/10/30 12:12:56;;;;;;;1.42;0.60;;;;;;;18.41;76.90;99680.03;10302274;28;98026;-82
2023/10/30 12:17:59;;;;;;;1.60;0.57;;;;;;;18.05;76.78;99675.84;10309479;28;98471;-81
2023/10/30 12:23:04;;;;;;;3.17;0.90;;;;;;;17.83;77.58;99662.50;10308865;28;100650;-83
2023/10/30 12:28:08;;;;;;;1.45;0.40;;;;;;;18.61;75.72;99659.81;10314638;28;98529;-85
2023/10/30 12:33:13;;;;;;;1.53;0.50;;;;;;;18.48;76.08;99643.97;10314353;28;97078;-81
2023/10/30 12:38:18;;;;;;;1.95;0.60;;;;;;;17.98;76.91;99650.69;10316897;28;98603;-81
2023/10/30 12:43:21;;;;;;;1.42;0.63;;;;;;;17.66;77.48;99660.31;10310884;28;97055;-85
2023/10/30 12:48:25;;;;;;;2.72;0.63;;;;;;;17.40;78.24;99657.97;10308870;28;98858;-79
2023/10/30 12:53:31;;;;;;;2.53;0.60;;;;;;;16.80;79.72;99658.97;10307822;28;100747;-85
2023/10/30 12:58:34;;;;;;;3.58;1.00;;;;;;;16.73;79.68;99660.41;10308642;28;98785;-81
2023/10/30 13:03:37;;;;;;;2.78;0.63;;;;;;;16.63;80.13;99650.56;10303728;28;97359;-83
2023/10/30 13:08:42;;;;;;;1.95;0.70;;;;;;;18.62;76.06;99641.03;10300030;28;98774;-83
2023/10/30 13:13:45;;;;;;;;;;;;;;;18.86;72.94;99627.47;10307660;28;98629;-84
2023/10/30 13:18:49;;;;;;;0.95;0.50;;;;;;;18.88;73.93;99633.53;10310547;28;99798;-81
2023/10/30 13:23:53;;;;;;;6.72;0.93;;;;;;;18.21;74.42;99646.19;10310362;28;98531;-84
2023/10/30 13:29:00;;;;;;;1.90;0.73;;;;;;;17.71;75.63;99655.50;10312304;28;99090;-83
2023/10/30 13:34:03;;;;;;;3.33;0.98;;;;;;;17.36;77.01;99657.38;10313324;28;98151;-84
2023/10/30 13:39:08;;;;;;;2.65;0.98;;;;;;;18.86;72.22;99663.00;10307238;28;100094;-85
2023/10/30 13:44:11;;;;;;;4.97;1.23;;;;;;;19.41;72.00;99666.41;10301916;28;98801;-83
2023/10/30 13:49:15;;;;;;;3.13;1.23;;;;;;;18.34;74.21;99672.66;10306281;28;99009;-82
2023/10/30 13:54:22;;;;;;;2.25;1.25;;;;;;;17.88;75.43;99672.81;10308915;28;98167;-81
2023/10/30 13:59:26;;;;;;;2.28;0.80;;;;;;;17.68;75.37;99674.38;10309737;28;98316;-80
2023/10/30 14:04:29;;;;;;;3.63;0.70;;;;;;;17.42;75.11;99678.16;10311017;28;98442;-81
2023/10/30 14:09:35;;;;;;;6.13;1.23;;;;;;;17.46;75.56;99686.75;10311481;28;96827;-84
2023/10/30 14:14:38;;;;;;;3.08;1.23;;;;;;;17.28;75.50;99691.66;10312793;28;98637;-84
2023/10/30 14:19:41;;;;;;;8.27;2.00;;;;;;;17.36;75.68;99693.75;10315241;28;96891;-84
2023/10/30 14:24:46;;;;;;;5.28;1.30;;;;;;;17.48;74.89;99696.34;10310469;28;96945;-87
2023/10/30 14:29:52;;;;;;;7.00;1.25;;;;;;;17.72;74.46;99701.59;10320235;28;97124;-86
2023/10/30 14:34:55;;;;;;;4.93;1.13;;;;;;;17.50;74.78;99710.34;10316421;28;101062;-87
2023/10/30 14:39:59;;;;;;;5.57;1.13;;;;;;;17.38;75.41;99721.91;10322468;28;97219;-88
2023/10/30 14:45:03;;;;;;;;;;;;;;;17.25;76.12;99723.81;10317176;28;98496;-86
2023/10/30 14:50:07;;;;;;;6.07;0.98;;;;;;;16.94;75.40;99735.03;10315908;28;96926;-85
2023/10/30 14:55:13;;;;;;;6.88;1.38;;;;;;;17.56;74.26;99755.13;10313880;28;97701;-85
2023/10/30 15:00:18;;;;;;;5.45;1.20;;;;;;;18.70;70.91;99753.19;10316849;28;96812;-86
2023/10/30 15:05:21;;;;;;;4.63;1.10;;;;;;;19.65;68.54;99755.06;10316757;28;97401;-86
2023/10/30 15:10:27;;;;;;;3.03;0.65;;;;;;;20.47;64.96;99775.50;10320007;28;96747;-87
2023/10/30 15:15:30;;;;;;;6.72;0.77;;;;;;;19.81;64.95;99772.31;10318096;28;96909;-84
2023/10/30 15:20:34;;;;;;;3.22;0.57;;;;;;;19.02;68.27;99787.91;10320352;28;98607;-84
2023/10/30 15:25:39;;;;;;;2.73;0.90;;;;;;;18.26;69.83;99787.81;10301272;28;98698;-84
2023/10/30 15:30:44;;;;;;;2.70;0.77;;;;;;;17.98;70.79;99778.47;10306942;28;96886;-85
2023/10/30 15:35:48;;;;;;;3.70;1.08;;;;;;;17.50;71.28;99774.19;10315522;28;98432;-84
2023/10/30 15:40:53;;;;;;;3.17;0.75;;;;;;;17.37;71.77;99791.16;10316940;28;96958;-84
2023/10/30 15:45:56;;;;;;;2.15;0.73;;;;;;;17.38;72.10;99793.72;10314974;28;98498;-84
2023/10/30 15:51:00;;;;;;;2.38;0.80;;;;;;;18.15;70.95;99801.97;10321286;28;99135;-84
2023/10/30 15:56:06;;;;;;;4.32;0.80;;;;;;;18.89;69.01;99800.50;10324087;28;98332;-83
2023/10/30 16:01:15;;;;;;;4.25;1.30;;;;;;;18.16;70.26;99800.13;10320135;28;97261;-82
2023/10/30 16:06:18;;;;;;;5.78;1.27;;;;;;;18.06;70.91;99813.31;10312593;28;97263;-82
2023/10/30 16:11:23;;;;;;;7.28;4.80;;;;;;;17.99;71.34;99811.25;10314738;28;98882;-84
2023/10/30 16:16:30;;;;;;;4.22;1.83;;;;;;;17.57;72.38;99818.00;10337613;22;98961;-81
2023/10/30 16:21:33;;;;;;;7.88;2.10;;;;;;;17.90;71.87;99820.78;10377877;28;98186;-81
2023/10/30 16:26:38;;;;;;;4.00;1.35;;;;;;;18.19;70.59;99824.72;10377901;28;98458;-79
2023/10/30 16:31:42;;;;;;;3.90;1.65;;;;;;;18.44;69.99;99825.47;10366632;28;99349;-85
2023/10/30 16:36:45;;;;;;;4.30;1.57;;;;;;;17.85;71.18;99838.91;10369730;28;97778;-79
2023/10/30 16:41:50;;;;;;;2.42;1.40;;;;;;;17.46;72.10;99847.25;10375041;28;96820;-77
2023/10/30 16:46:53;;;;;;;;;;;;;;;17.15;73.41;99866.38;10361418;28;99409;-78
2023/10/30 16:51:57;;;;;;;3.53;1.05;;;;;;;16.83;72.64;99873.13;10365322;28;100020;-79
2023/10/30 16:57:02;;;;;;;4.50;0.80;;;;;;;16.67;72.17;99870.72;10374434;28;99051;-80
2023/10/30 17:02:05;;;;;;;;;;;;;;;16.65;71.72;99877.94;10369818;28;98377;-80
2023/10/30 17:07:12;;;;;;;3.67;0.70;;;;;;;16.69;71.94;99887.41;10374345;28;96739;-87
2023/10/30 17:12:17;;;;;;;6.25;1.27;;;;;;;16.67;72.56;99899.13;10373222;28;96846;-88
2023/10/30 17:17:21;;;;;;;4.60;1.17;;;;;;;16.50;73.10;99905.59;10367262;28;96954;-87
2023/10/30 17:22:25;;;;;;;4.63;0.97;;;;;;;16.44;73.53;99910.47;10356690;28;96913;-82
2023/10/30 17:27:30;;;;;;;3.63;1.10;;;;;;;16.35;74.08;99914.59;10373145;28;96952;-85
2023/10/30 17:32:33;;;;;;;2.95;1.00;;;;;;;16.25;74.42;99923.28;10365081;28;96928;-89
2023/10/30 17:37:36;;;;;;;3.80;0.93;;;;;;;16.10;75.23;99924.31;10371112;28;96936;-88
2023/10/30 17:42:41;;;;;;;4.07;1.02;;;;;;;15.83;75.75;99932.31;10370576;28;97083;-85
2023/10/30 17:47:45;;;;;;;4.10;1.00;;;;;;;15.72;76.77;99938.31;10374365;28;97528;-90
2023/10/30 17:52:49;;;;;;;6.97;1.35;;;;;;;15.70;76.27;99942.88;10368297;28;97053;-90
2023/10/30 17:57:54;;;;;;;4.80;2.20;;;;;;;15.57;77.56;99947.28;10370273;28;98890;-87
2023/10/30 18:02:58;;;;;;;7.18;2.67;;;;;;;15.59;77.18;99956.00;10376468;28;97076;-84
2023/10/30 18:08:02;;;;;;;5.28;3.38;;;;;;;15.54;77.18;99957.25;10379095;28;96821;-85
2023/10/30 18:13:06;;;;;;;6.68;2.67;;;;;;;15.41;77.52;99972.22;10368899;28;97946;-87
2023/10/30 18:18:10;;;;;;;8.13;1.98;;;;;;;15.32;77.76;99972.81;10359377;28;97515;-85
2023/10/30 18:23:13;;;;;;;5.57;2.50;;;;;;;15.29;77.88;99979.16;10364611;28;96749;-86
2023/10/30 18:28:19;;;;;;;5.60;1.60;;;;;;;15.23;77.81;99986.63;10366215;28;96885;-78
2023/10/30 18:33:26;;;;;;;1.95;1.27;;;;;;;15.15;78.22;100005.63;10360944;28;97435;-78
2023/10/30 18:38:29;;;;;;;5.25;1.60;;;;;;;15.16;77.97;100009.16;10362736;28;97423;-81
2023/10/30 18:43:34;;;;;;;3.53;1.63;;;;;;;15.18;78.35;100021.34;10364406;28;97861;-81
2023/10/30 18:48:37;;;;;;;9.05;3.53;;;;;;;15.16;78.53;100025.06;10358674;28;97996;-80
2023/10/30 18:53:41;;;;;;;9.87;4.13;;;;;;;15.19;78.88;100033.66;10363719;28;97642;-79
2023/10/30 18:58:46;;;;;;;12.88;5.00;;;;;;;15.21;78.51;100034.44;10363248;28;98525;-81
2023/10/30 19:03:49;;;;;;;;;;;;;;;15.16;79.33;100049.78;10358509;28;98739;-82
2023/10/30 19:08:54;;;;;;;10.02;3.80;;;;;;;15.08;79.28;100051.19;10363252;28;99168;-83
2023/10/30 19:13:58;;;;;;;;;;;;;;;14.93;80.35;100060.91;10363953;28;97402;-82
2023/10/30 19:19:02;;;;;;;9.40;3.78;;;;;;;14.89;79.29;100062.03;10357389;28;98633;-83
2023/10/30 19:24:06;;;;;;;6.55;3.22;;;;;;;14.78;80.05;100061.84;10365450;28;96949;-80
2023/10/30 19:29:10;;;;;;;7.43;3.28;;;;;;;14.73;79.60;100066.56;10361073;28;97072;-80
2023/10/30 19:34:14;;;;;;;8.20;3.88;;;;;;;14.74;80.55;100062.94;10363510;28;98819;-77
2023/10/30 19:39:17;;;;;;;9.55;4.05;;;;;;;14.69;80.57;100065.88;10367917;28;98656;-79
2023/10/30 19:44:22;;;;;;;10.10;4.53;;;;;;;14.62;81.04;100075.13;10358733;28;97580;-78
2023/10/30 19:49:25;;;;;;;13.40;4.32;;;;;;;14.58;81.00;100085.97;10364290;28;97151;-81
2023/10/30 19:54:30;;;;;;;14.13;5.75;;;;;;;14.55;80.79;100094.97;10363689;28;99260;-77
2023/10/30 19:59:35;;;;;;;10.73;4.60;;;;;;;14.53;81.12;100093.34;10364905;28;97019;-79
2023/10/30 20:04:39;;;;;;;9.20;4.32;;;;;;;14.49;81.16;100094.44;10362943;28;96981;-79
2023/10/30 20:09:42;;;;;;;10.75;4.55;;;;;;;14.53;81.36;100102.16;10368436;28;97049;-77
2023/10/30 20:14:59;;;;;;;8.63;4.05;;;;;;;14.51;81.07;100095.22;10358223;28;98325;-78
2023/10/30 20:20:04;;;;;;;15.40;4.60;;;;;;;14.51;81.17;100105.81;10362668;28;99435;-77
2023/10/30 20:25:08;;;;;;;8.82;3.50;;;;;;;14.39;82.01;100117.09;10358921;28;98264;-76
2023/10/30 20:30:15;;;;;;;7.80;3.90;;;;;;;14.35;82.11;100115.59;10357608;28;97725;-79
2023/10/30 20:35:18;;;;;;;11.52;5.95;;;;;;;14.34;82.26;100125.31;10367325;28;96840;-77
2023/10/30 20:40:21;;;;;;;15.73;7.07;;;;;;;14.31;82.12;100133.44;10367412;28;97482;-75
2023/10/30 20:45:26;;;;;;;8.65;3.90;;;;;;;14.33;82.37;100136.84;10369387;28;98790;-76
2023/10/30 20:50:30;;;;;;;9.80;3.25;;;;;;;14.38;82.53;100144.53;10372024;28;98557;-76
2023/10/30 20:55:34;;;;;;;10.63;3.35;;;;;;;14.43;82.60;100159.22;10368617;28;98789;-76
2023/10/30 21:00:39;;;;;;;10.02;4.07;;;;;;;14.45;82.66;100173.19;10371382;28;97143;-76
2023/10/30 21:05:42;;;;;;;;;;;;;;;14.31;84.07;100167.84;10370171;28;96844;-76
2023/10/30 21:10:45;;;;;;;6.60;2.88;;;;;;;14.39;83.63;100176.22;10372880;28;98588;-77
2023/10/30 21:15:51;;;;;;;6.03;2.75;;;;;;;14.33;83.98;100187.13;10367876;28;96838;-77
2023/10/30 21:20:54;;;;;;;5.07;2.80;;;;;;;14.41;83.87;100200.81;10368756;28;96892;-77
2023/10/30 21:25:57;;;;;;;4.50;2.58;;;;;;;14.43;83.74;100198.94;10376670;28;96800;-77
2023/10/30 21:31:03;;;;;;;6.22;2.20;;;;;;;14.39;83.44;100201.81;10367500;28;98972;-77
2023/10/30 21:36:06;;;;;;;;;;;;;;;14.44;83.79;100208.56;10371403;28;98790;-77
2023/10/30 21:41:09;;;;;;;8.93;2.38;;;;;;;14.28;83.79;100212.16;10365766;28;98966;-76
2023/10/30 21:46:14;;;;;;;7.15;2.40;;;;;;;14.28;83.74;100210.34;10365647;28;97566;-77
2023/10/30 21:51:19;;;;;;;4.68;1.92;;;;;;;14.25;84.08;100210.53;10367615;28;96853;-76
2023/10/30 21:56:23;;;;;;;6.82;2.00;;;;;;;14.24;83.50;100230.00;10368075;28;98951;-76
2023/10/30 22:01:28;;;;;;;5.07;1.63;;;;;;;14.33;83.67;100240.06;10372997;28;96857;-76
2023/10/30 22:06:32;;;;;;;4.57;1.90;;;;;;;14.36;83.77;100244.34;10367860;28;98673;-78
2023/10/30 22:11:35;;;;;;;4.63;2.50;;;;;;;14.24;84.81;100237.94;10373377;28;96892;-79
2023/10/30 22:16:40;;;;;;;5.55;1.90;;;;;;;14.31;84.11;100244.63;10366880;28;97104;-77
2023/10/30 22:21:43;;;;;;;6.07;1.83;;;;;;;14.23;84.40;100240.69;10372234;28;98831;-78
2023/10/30 22:26:47;;;;;;;4.07;1.85;;;;;;;14.17;84.89;100248.94;10366316;28;97307;-74
2023/10/30 22:31:52;;;;;;;5.00;1.77;;;;;;;14.12;84.53;100253.63;10368890;28;97048;-75
2023/10/30 22:36:55;;;;;;;3.20;1.58;;;;;;;14.16;84.28;100258.66;10368771;28;97047;-76
2023/10/30 22:41:59;;;;;;;5.70;1.73;;;;;;;14.10;84.86;100264.31;10367508;28;98954;-76
2023/10/30 22:47:04;;;;;;;3.28;1.70;;;;;;;14.15;85.00;100256.97;10366149;28;96968;-75
2023/10/30 22:52:07;;;;;;;;;;;;;;;14.08;85.55;100265.31;10377485;28;96869;-76
2023/10/30 22:57:10;;;;;;;53.40;21.45;;;;;;;13.94;84.96;100266.03;10370833;28;96842;-76
2023/10/30 23:02:15;;;;;;;24.42;11.00;;;;;;;14.02;84.96;100274.44;10363220;28;98896;-76
2023/10/30 23:07:18;;;;;;;6.97;3.35;;;;;;;14.02;84.72;100279.72;10372595;28;97011;-76
2023/10/30 23:12:22;;;;;;;4.35;2.30;;;;;;;14.01;84.31;100271.84;10373526;28;97177;-77
2023/10/30 23:17:27;;;;;;;5.40;2.30;;;;;;;14.02;84.38;100270.94;10367166;28;97594;-76
2023/10/30 23:22:31;;;;;;;2.85;1.33;;;;;;;13.98;84.63;100280.81;10373556;28;96733;-76
2023/10/30 23:27:34;;;;;;;4.35;1.98;;;;;;;14.07;84.78;100280.34;10393700;28;96993;-76
2023/10/30 23:32:39;;;;;;;3.92;1.60;;;;;;;13.99;84.63;100277.22;10370700;28;98296;-76